createdAt,value
2023-03-03T00:02:11.121Z,3.91
2023-03-03T00:04:40.117Z,3.89
2023-03-03T00:07:08.498Z,3.88
2023-03-03T00:09:36.668Z,3.87
2023-03-03T00:12:23.281Z,3.87
2023-03-03T00:14:52.226Z,3.85
2023-03-03T00:17:24.586Z,3.82
2023-03-03T00:20:35.382Z,3.81
2023-03-03T00:23:17.219Z,3.79
2023-03-03T00:25:46.778Z,3.78
2023-03-03T00:28:25.510Z,3.78
2023-03-03T00:30:57.034Z,3.79
2023-03-03T00:33:29.483Z,3.80
2023-03-03T00:36:02.178Z,3.81
2023-03-03T00:38:30.488Z,3.81
2023-03-03T00:41:01.383Z,3.82
2023-03-03T00:43:37.374Z,3.83
2023-03-03T00:46:05.750Z,3.84
2023-03-03T00:48:53.861Z,3.85
2023-03-03T00:51:30.118Z,3.86
2023-03-03T00:54:00.974Z,3.89
2023-03-03T00:56:29.090Z,3.94
2023-03-03T00:58:57.862Z,4.00
2023-03-03T01:01:28.278Z,4.07
2023-03-03T01:03:56.467Z,4.15
2023-03-03T01:06:24.987Z,4.22
2023-03-03T01:08:54.254Z,4.29
2023-03-03T01:11:25.956Z,4.35
2023-03-03T01:13:54.906Z,4.40
2023-03-03T01:16:23.278Z,4.43
2023-03-03T01:18:52.140Z,4.43
2023-03-03T01:21:22.787Z,4.44
2023-03-03T01:23:53.882Z,4.42
2023-03-03T01:26:46.297Z,4.41
2023-03-03T01:29:16.992Z,4.39
2023-03-03T01:31:46.552Z,4.37
2023-03-03T01:34:17.239Z,4.36
2023-03-03T01:36:45.237Z,4.35
2023-03-03T01:39:13.690Z,4.32
2023-03-03T01:41:41.883Z,4.30
2023-03-03T01:44:15.876Z,4.25
2023-03-03T01:46:54.808Z,4.19
2023-03-03T01:49:34.895Z,4.15
2023-03-03T01:52:30.455Z,4.13
2023-03-03T01:55:23.597Z,4.10
2023-03-03T01:58:05.039Z,4.10
2023-03-03T02:00:36.763Z,4.10
2023-03-03T02:03:05.445Z,4.09
2023-03-03T02:05:35.798Z,4.09
2023-03-03T02:08:05.977Z,4.09
2023-03-03T02:10:37.520Z,4.08
2023-03-03T02:13:05.499Z,4.07
2023-03-03T02:15:36.131Z,4.05
2023-03-03T02:18:10.162Z,4.02
2023-03-03T02:21:03.806Z,4.02
2023-03-03T02:23:55.489Z,4.03
2023-03-03T02:26:27.610Z,4.04
2023-03-03T02:28:59.305Z,4.08
2023-03-03T02:31:30.713Z,4.14
2023-03-03T02:33:59.445Z,4.21
2023-03-03T02:36:47.722Z,4.28
2023-03-03T02:39:27.588Z,4.36
2023-03-03T02:42:13.180Z,4.40
2023-03-03T02:44:46.610Z,4.43
2023-03-03T02:47:18.241Z,4.44
2023-03-03T02:49:46.337Z,4.43
2023-03-03T02:52:16.259Z,4.42
2023-03-03T02:54:45.798Z,4.40
2023-03-03T02:57:13.755Z,4.37
2023-03-03T02:59:41.568Z,4.32
2023-03-03T03:02:12.445Z,4.28
2023-03-03T03:04:41.808Z,4.25
2023-03-03T03:07:11.725Z,4.21
2023-03-03T03:09:40.053Z,4.18
2023-03-03T03:12:08.640Z,4.15
2023-03-03T03:14:37.199Z,4.11
2023-03-03T03:17:05.784Z,4.07
2023-03-03T03:19:33.667Z,4.04
2023-03-03T03:22:02.730Z,4.00
2023-03-03T03:24:33.681Z,3.99
2023-03-03T03:27:04.628Z,3.99
2023-03-03T03:29:33.604Z,3.96
2023-03-03T03:32:01.733Z,3.95
2023-03-03T03:34:29.613Z,3.95
2023-03-03T03:37:00.887Z,3.94
2023-03-03T03:39:29.452Z,3.94
2023-03-03T03:41:59.988Z,3.95
2023-03-03T03:44:30.811Z,3.95
2023-03-03T03:47:04.714Z,3.96
2023-03-03T03:49:33.821Z,3.97
2023-03-03T03:52:04.136Z,3.98
2023-03-03T03:54:32.929Z,4.01
2023-03-03T03:57:01.215Z,4.05
2023-03-03T03:59:29.547Z,4.10
2023-03-03T04:01:58.968Z,4.15
2023-03-03T04:04:27.691Z,4.20
2023-03-03T04:06:56.355Z,4.25
2023-03-03T04:09:24.497Z,4.30
2023-03-03T04:11:52.497Z,4.34
2023-03-03T04:14:22.351Z,4.38
2023-03-03T04:16:50.332Z,4.40
2023-03-03T04:19:18.537Z,4.44
2023-03-03T04:21:48.025Z,4.46
2023-03-03T04:24:16.327Z,4.48
2023-03-03T04:26:44.376Z,4.47
2023-03-03T04:29:12.915Z,4.45
2023-03-03T04:31:46.382Z,4.42
2023-03-03T04:34:14.883Z,4.42
2023-03-03T04:36:43.112Z,4.40
2023-03-03T04:39:12.547Z,4.38
2023-03-03T04:41:41.040Z,4.37
2023-03-03T04:44:09.003Z,4.35
2023-03-03T04:46:37.015Z,4.32
2023-03-03T04:49:09.351Z,4.31
2023-03-03T04:51:42.174Z,4.29
2023-03-03T04:54:16.452Z,4.26
2023-03-03T04:57:10.423Z,4.24
2023-03-03T04:59:38.539Z,4.20
2023-03-03T05:02:07.907Z,4.19
2023-03-03T05:04:35.818Z,4.15
2023-03-03T05:07:05.095Z,4.12
2023-03-03T05:09:33.351Z,4.11
2023-03-03T05:12:01.442Z,4.13
2023-03-03T05:14:29.451Z,4.16
2023-03-03T05:16:58.476Z,4.18
2023-03-03T05:19:26.796Z,4.18
2023-03-03T05:21:55.377Z,4.20
2023-03-03T05:24:25.958Z,4.23
2023-03-03T05:26:53.944Z,4.25
2023-03-03T05:29:25.358Z,4.29
2023-03-03T05:31:53.478Z,4.33
2023-03-03T05:34:21.418Z,4.39
2023-03-03T05:36:49.749Z,4.46
2023-03-03T05:39:17.960Z,4.51
2023-03-03T05:42:24.812Z,4.59
2023-03-03T05:45:58.301Z,4.69
2023-03-03T05:57:33.364Z,4.98
2023-03-03T06:00:45.218Z,4.95
2023-03-03T06:04:03.328Z,4.91
2023-03-03T06:06:50.924Z,4.95
2023-03-03T06:09:38.633Z,5.00
2023-03-03T06:12:36.339Z,5.04
2023-03-03T06:15:34.348Z,5.01
2023-03-03T06:18:32.353Z,5.01
2023-03-03T06:21:25.133Z,5.03
2023-03-03T06:25:01.794Z,5.04
2023-03-03T06:28:15.488Z,5.07
2023-03-03T06:31:50.898Z,5.11
2023-03-03T06:35:02.895Z,5.10
2023-03-03T06:38:11.420Z,5.11
2023-03-03T06:48:47.622Z,5.15
2023-03-03T06:55:47.297Z,5.33
2023-03-03T07:25:30.089Z,6.80
2023-03-03T07:28:32.337Z,7.04
2023-03-03T07:33:26.819Z,7.16
2023-03-03T07:42:55.376Z,7.31
2023-03-03T07:44:35.718Z,7.50
2023-03-03T07:47:34.565Z,7.56
2023-03-03T07:57:33.345Z,7.82
2023-03-03T08:04:59.164Z,7.90
2023-03-03T08:07:58.363Z,7.85
2023-03-03T08:14:36.354Z,8.03
2023-03-03T08:31:51.134Z,8.52
2023-03-03T08:37:58.270Z,8.39
2023-03-03T08:44:24.998Z,8.67
2023-03-03T08:46:57.606Z,8.83
2023-03-03T08:49:51.311Z,8.90
2023-03-03T08:52:49.596Z,8.59
2023-03-03T08:55:35.519Z,8.44
2023-03-03T08:59:02.235Z,8.73
2023-03-03T09:01:54.858Z,8.81
2023-03-03T09:08:16.188Z,8.79
2023-03-03T09:10:56.909Z,9.02
2023-03-03T09:14:35.178Z,9.26
2023-03-03T09:17:51.687Z,9.40
2023-03-03T09:20:46.563Z,9.41
2023-03-03T09:27:52.198Z,9.18
2023-03-03T09:31:15.238Z,8.86
2023-03-03T09:43:19.890Z,8.74
2023-03-03T09:50:03.023Z,8.73
2023-03-03T09:56:25.498Z,8.78
2023-03-03T09:56:34.468Z,8.69
2023-03-03T10:06:28.413Z,8.68
2023-03-03T10:10:12.713Z,8.83
2023-03-03T10:13:27.939Z,8.89
2023-03-03T10:16:40.257Z,8.75
2023-03-03T10:20:52.776Z,8.99
2023-03-03T10:24:30.962Z,9.46
2023-03-03T10:28:06.847Z,9.80
2023-03-03T10:31:29.316Z,10.19
2023-03-03T10:38:20.678Z,10.59
2023-03-03T11:09:40.633Z,11.97
2023-03-03T11:12:49.897Z,11.34
2023-03-03T11:15:35.194Z,11.44
2023-03-03T11:18:26.162Z,11.68
2023-03-03T11:21:26.051Z,12.07
2023-03-03T11:24:12.922Z,12.48
2023-03-03T11:27:14.519Z,12.49
2023-03-03T11:30:05.556Z,12.33
2023-03-03T11:33:29.264Z,11.83
2023-03-03T11:36:50.692Z,11.71
2023-03-03T11:40:43.219Z,12.34
2023-03-03T12:07:19.175Z,11.44
2023-03-03T12:10:57.551Z,12.36
2023-03-03T12:18:21.600Z,13.26
2023-03-03T12:30:27.961Z,14.04
2023-03-03T12:31:26.957Z,13.37
2023-03-03T12:34:08.355Z,13.51
2023-03-03T13:24:57.579Z,13.80
2023-03-03T13:27:40.788Z,13.40
2023-03-03T13:30:26.576Z,12.95
2023-03-03T13:33:08.563Z,12.42
2023-03-03T13:36:04.384Z,12.30
2023-03-03T13:38:49.752Z,12.33
2023-03-03T13:41:34.890Z,12.15
2023-03-03T13:44:15.679Z,11.65
2023-03-03T13:47:03.669Z,11.61
2023-03-03T13:50:01.300Z,11.31
2023-03-03T13:52:32.735Z,10.95
2023-03-03T13:55:12.112Z,10.71
2023-03-03T13:58:03.747Z,10.47
2023-03-03T14:00:53.013Z,10.25
2023-03-03T14:07:18.070Z,10.21
2023-03-03T14:10:48.861Z,10.83
2023-03-03T14:23:57.418Z,14.05
2023-03-03T14:26:54.475Z,14.17
2023-03-03T14:34:11.036Z,12.31
2023-03-03T14:36:57.872Z,11.57
2023-03-03T14:40:16.994Z,10.99
2023-03-03T14:43:11.084Z,10.63
2023-03-03T14:46:05.605Z,10.97
2023-03-03T14:49:52.599Z,10.92
2023-03-03T15:00:36.133Z,10.15
2023-03-03T15:07:41.038Z,11.10
2023-03-03T15:10:13.617Z,11.32
2023-03-03T15:12:43.324Z,11.43
2023-03-03T15:15:21.508Z,11.45
2023-03-03T15:18:22.490Z,10.99
2023-03-03T15:30:40.649Z,8.97
2023-03-03T15:33:32.179Z,8.86
2023-03-03T15:36:26.335Z,8.68
2023-03-03T15:39:26.513Z,8.74
2023-03-03T15:52:55.956Z,8.04
2023-03-03T16:01:13.607Z,7.57
2023-03-03T16:03:56.743Z,7.44
2023-03-03T16:07:17.148Z,7.33
2023-03-03T16:10:50.439Z,7.22
2023-03-03T16:22:04.883Z,6.68
2023-03-03T16:26:03.212Z,6.54
2023-03-03T16:29:04.799Z,6.42
2023-03-03T16:32:05.462Z,6.32
2023-03-03T16:34:55.797Z,6.23
2023-03-03T16:41:29.131Z,6.04
2023-03-03T16:44:14.475Z,5.99
2023-03-03T16:46:46.235Z,5.95
2023-03-03T16:49:26.328Z,5.90
2023-03-03T16:52:13.617Z,5.84
2023-03-03T16:54:54.990Z,5.79
2023-03-03T16:57:39.836Z,5.74
2023-03-03T17:00:14.709Z,5.65
2023-03-03T17:03:03.856Z,5.59
2023-03-03T17:06:03.176Z,5.53
2023-03-03T17:08:50.073Z,5.47
2023-03-03T17:11:35.365Z,5.39
2023-03-03T17:14:19.949Z,5.31
2023-03-03T17:16:58.160Z,5.25
2023-03-03T17:19:49.542Z,5.18
2023-03-03T17:22:27.955Z,5.12
2023-03-03T17:25:28.821Z,5.07
2023-03-03T17:28:26.097Z,5.01
2023-03-03T17:31:02.813Z,4.97
2023-03-03T17:34:04.926Z,4.93
2023-03-03T17:36:54.231Z,4.89
2023-03-03T17:39:47.943Z,4.86
2023-03-03T17:42:29.632Z,4.82
2023-03-03T17:45:07.648Z,4.78
2023-03-03T17:48:08.569Z,4.74
2023-03-03T17:51:02.144Z,4.70
2023-03-03T17:53:56.256Z,4.67
2023-03-03T17:56:33.100Z,4.64
2023-03-03T17:59:17.600Z,4.61
2023-03-03T18:02:16.658Z,4.57
2023-03-03T18:05:17.040Z,4.52
2023-03-03T18:08:05.981Z,4.47
2023-03-03T18:11:08.864Z,4.43
2023-03-03T18:13:57.394Z,4.37
2023-03-03T18:16:47.913Z,4.33
2023-03-03T18:19:49.124Z,4.28
2023-03-03T18:22:25.630Z,4.23
2023-03-03T18:24:59.859Z,4.20
2023-03-03T18:27:32.723Z,4.18
2023-03-03T18:30:24.660Z,4.15
2023-03-03T18:33:06.353Z,4.11
2023-03-03T18:35:38.614Z,4.06
2023-03-03T18:38:24.412Z,4.03
2023-03-03T18:41:00.720Z,3.99
2023-03-03T18:43:50.593Z,3.96
2023-03-03T18:46:46.419Z,3.94
2023-03-03T18:49:16.181Z,3.95
2023-03-03T18:51:49.340Z,3.96
2023-03-03T18:54:42.510Z,3.98
2023-03-03T18:58:05.453Z,4.01
2023-03-03T19:01:16.498Z,4.02
2023-03-03T19:04:53.948Z,4.05
2023-03-03T19:08:15.440Z,4.07
2023-03-03T19:14:45.553Z,4.04
2023-03-03T19:17:43.531Z,4.02
2023-03-03T19:20:15.573Z,4.00
2023-03-03T19:22:48.265Z,3.98
2023-03-03T19:25:22.486Z,3.96
2023-03-03T19:28:07.656Z,3.93
2023-03-03T19:31:01.519Z,3.89
2023-03-03T19:33:45.856Z,3.85
2023-03-03T19:36:40.545Z,3.81
2023-03-03T19:39:52.405Z,3.77
2023-03-03T19:42:35.449Z,3.74
2023-03-03T19:45:42.857Z,3.73
2023-03-03T19:52:14.472Z,3.65
2023-03-03T19:54:58.776Z,3.61
2023-03-03T19:57:47.908Z,3.58
2023-03-03T20:00:34.522Z,3.57
2023-03-03T20:03:47.561Z,3.57
2023-03-03T20:06:42.472Z,3.58
2023-03-03T20:09:22.693Z,3.59
2023-03-03T20:12:05.768Z,3.62
2023-03-03T20:14:46.249Z,3.64
2023-03-03T20:17:35.351Z,3.64
2023-03-03T20:20:23.604Z,3.63
2023-03-03T20:23:11.969Z,3.59
2023-03-03T20:25:46.773Z,3.55
2023-03-03T20:28:32.776Z,3.50
2023-03-03T20:31:12.917Z,3.42
2023-03-03T20:33:58.406Z,3.34
2023-03-03T20:36:43.736Z,3.26
2023-03-03T20:39:26.768Z,3.18
2023-03-03T20:42:11.674Z,3.11
2023-03-03T20:44:57.268Z,3.05
2023-03-03T20:47:43.671Z,2.99
2023-03-03T20:50:47.492Z,2.93
2023-03-03T20:53:42.815Z,2.87
2023-03-03T20:56:33.711Z,2.81
2023-03-03T20:59:16.623Z,2.79
2023-03-03T21:02:13.435Z,2.79
2023-03-03T21:04:43.203Z,2.82
2023-03-03T21:07:27.706Z,2.85
2023-03-03T21:10:42.548Z,2.89
2023-03-03T21:13:42.175Z,2.92
2023-03-03T21:16:29.620Z,2.97
2023-03-03T21:19:26.456Z,3.02
2023-03-03T21:21:57.441Z,3.08
2023-03-03T21:24:58.551Z,3.13
2023-03-03T21:27:38.101Z,3.17
2023-03-03T21:30:11.716Z,3.19
2023-03-03T21:32:43.938Z,3.19
2023-03-03T21:35:15.419Z,3.18
2023-03-03T21:37:57.766Z,3.15
2023-03-03T21:40:29.573Z,3.10
2023-03-03T21:43:00.965Z,3.04
2023-03-03T21:45:30.124Z,2.97
2023-03-03T21:48:02.333Z,2.92
2023-03-03T21:50:32.769Z,2.86
2023-03-03T21:53:04.188Z,2.78
2023-03-03T21:55:32.648Z,2.70
2023-03-03T21:58:02.004Z,2.62
2023-03-03T22:00:33.816Z,2.55
2023-03-03T22:03:04.409Z,2.47
2023-03-03T22:05:33.504Z,2.41
2023-03-03T22:08:01.740Z,2.36
2023-03-03T22:10:30.389Z,2.30
2023-03-03T22:12:59.463Z,2.24
2023-03-03T22:15:30.471Z,2.18
2023-03-03T22:17:59.144Z,2.12
2023-03-03T22:20:27.693Z,2.07
2023-03-03T22:22:56.723Z,2.03
2023-03-03T22:25:36.612Z,2.02
2023-03-03T22:28:22.342Z,2.01
2023-03-03T22:30:50.899Z,2.02
2023-03-03T22:33:19.634Z,2.04
2023-03-03T22:35:48.636Z,2.07
2023-03-03T22:38:17.793Z,2.11
2023-03-03T22:40:46.921Z,2.14
2023-03-03T22:43:15.013Z,2.15
2023-03-03T22:45:44.767Z,2.17
2023-03-03T22:48:13.400Z,2.18
2023-03-03T22:50:43.635Z,2.19
2023-03-03T22:53:11.799Z,2.17
2023-03-03T22:55:55.615Z,2.13
2023-03-03T22:58:38.850Z,2.07
2023-03-03T23:01:06.933Z,2.01
2023-03-03T23:03:42.756Z,1.97
2023-03-03T23:06:11.796Z,1.92
2023-03-03T23:08:39.756Z,1.87
2023-03-03T23:11:07.860Z,1.81
2023-03-03T23:13:54.556Z,1.77
2023-03-03T23:16:23.406Z,1.72
2023-03-03T23:18:51.340Z,1.67
2023-03-03T23:21:19.662Z,1.62
2023-03-03T23:24:06.939Z,1.58
2023-03-03T23:26:35.388Z,1.55
2023-03-03T23:29:18.531Z,1.51
2023-03-03T23:31:46.517Z,1.48
2023-03-03T23:34:14.571Z,1.45
2023-03-03T23:36:42.614Z,1.41
2023-03-03T23:39:15.470Z,1.40
2023-03-03T23:41:45.254Z,1.41
2023-03-03T23:44:14.201Z,1.40
2023-03-03T23:46:42.455Z,1.38
2023-03-03T23:49:10.399Z,1.38
2023-03-03T23:51:38.514Z,1.39
2023-03-03T23:54:08.229Z,1.40
2023-03-03T23:56:36.415Z,1.39
2023-03-03T23:59:19.637Z,1.36
